createdAt,value
2023-01-29T00:01:13.478Z,73.60
2023-01-29T00:03:43.098Z,73.40
2023-01-29T00:06:13.106Z,72.90
2023-01-29T00:08:42.368Z,74.10
2023-01-29T00:11:12.665Z,73.90
2023-01-29T00:13:43.309Z,73.40
2023-01-29T00:16:12.768Z,73.90
2023-01-29T00:18:42.489Z,73.50
2023-01-29T00:21:12.405Z,73.80
2023-01-29T00:23:41.649Z,73.50
2023-01-29T00:26:11.932Z,74.80
2023-01-29T00:28:47.007Z,74.10
2023-01-29T00:31:18.791Z,75.10
2023-01-29T00:33:48.538Z,76.30
2023-01-29T00:36:20.627Z,75.70
2023-01-29T00:38:54.953Z,75.10
2023-01-29T00:41:44.699Z,75.10
2023-01-29T00:44:32.408Z,75.00
2023-01-29T00:47:02.057Z,75.50
2023-01-29T00:49:31.899Z,76.00
2023-01-29T00:52:18.092Z,75.70
2023-01-29T00:54:47.299Z,76.20
2023-01-29T00:57:16.459Z,76.40
2023-01-29T00:59:47.264Z,76.10
2023-01-29T01:02:33.826Z,75.90
2023-01-29T01:05:03.891Z,76.10
2023-01-29T01:07:33.314Z,75.70
2023-01-29T01:10:19.647Z,76.20
2023-01-29T01:12:49.109Z,76.00
2023-01-29T01:15:20.809Z,77.00
2023-01-29T01:17:53.085Z,77.20
2023-01-29T01:20:22.419Z,77.70
2023-01-29T01:22:51.838Z,77.10
2023-01-29T01:25:21.603Z,76.80
2023-01-29T01:27:53.706Z,76.90
2023-01-29T01:30:25.302Z,78.00
2023-01-29T01:32:54.475Z,77.80
2023-01-29T01:35:23.721Z,77.40
2023-01-29T01:37:52.947Z,76.30
2023-01-29T01:40:22.621Z,76.90
2023-01-29T01:42:54.650Z,76.90
2023-01-29T01:45:29.334Z,77.80
2023-01-29T01:48:03.130Z,78.30
2023-01-29T01:50:36.756Z,79.00
2023-01-29T01:53:11.211Z,79.40
2023-01-29T01:55:44.653Z,79.40
2023-01-29T01:58:19.794Z,78.80
2023-01-29T02:00:51.252Z,79.20
2023-01-29T02:03:40.257Z,80.00
2023-01-29T02:06:28.083Z,80.60
2023-01-29T02:09:18.826Z,81.90
2023-01-29T02:11:48.310Z,82.60
2023-01-29T02:14:18.237Z,82.40
2023-01-29T02:16:49.585Z,82.80
2023-01-29T02:19:25.385Z,83.90
2023-01-29T02:22:21.121Z,84.30
2023-01-29T02:25:10.720Z,83.40
2023-01-29T02:28:03.430Z,83.00
2023-01-29T02:30:41.762Z,82.80
2023-01-29T02:33:22.915Z,82.20
2023-01-29T02:35:59.684Z,82.30
2023-01-29T02:38:35.990Z,81.70
2023-01-29T02:41:10.617Z,81.50
2023-01-29T02:43:47.397Z,80.90
2023-01-29T02:46:25.453Z,80.60
2023-01-29T02:49:00.640Z,80.80
2023-01-29T02:51:36.815Z,80.60
2023-01-29T02:54:10.088Z,80.60
2023-01-29T02:56:45.970Z,80.80
2023-01-29T02:59:19.196Z,82.20
2023-01-29T03:01:54.803Z,82.70
2023-01-29T03:04:30.021Z,81.90
2023-01-29T03:07:04.739Z,82.40
2023-01-29T03:09:38.439Z,82.30
2023-01-29T03:12:29.460Z,81.60
2023-01-29T03:15:14.341Z,82.30
2023-01-29T03:31:38.202Z,77.90
2023-01-29T03:34:16.612Z,79.40
2023-01-29T03:36:55.951Z,79.50
2023-01-29T03:39:28.581Z,79.00
2023-01-29T03:42:03.735Z,78.40
2023-01-29T03:44:40.564Z,78.80
2023-01-29T03:47:21.586Z,78.20
2023-01-29T03:49:59.245Z,78.70
2023-01-29T03:52:36.248Z,79.00
2023-01-29T03:55:11.755Z,79.80
2023-01-29T03:57:45.711Z,79.80
2023-01-29T04:00:21.368Z,79.60
2023-01-29T04:03:08.310Z,79.40
2023-01-29T04:05:45.259Z,79.50
2023-01-29T04:08:26.518Z,79.00
2023-01-29T04:10:58.658Z,79.10
2023-01-29T04:13:31.664Z,78.20
2023-01-29T04:16:02.844Z,79.10
2023-01-29T04:19:00.247Z,78.90
2023-01-29T04:21:34.350Z,79.50
2023-01-29T04:24:03.918Z,79.20
2023-01-29T04:26:57.471Z,78.90
2023-01-29T04:29:40.529Z,78.20
2023-01-29T04:32:19.094Z,77.70
2023-01-29T04:35:01.019Z,78.20
2023-01-29T04:37:39.160Z,78.10
2023-01-29T04:40:19.234Z,79.50
2023-01-29T04:42:56.450Z,80.40
2023-01-29T04:45:36.704Z,80.30
2023-01-29T04:48:15.917Z,80.70
2023-01-29T04:50:53.910Z,80.90
2023-01-29T04:53:30.480Z,81.10
2023-01-29T04:56:07.728Z,81.30
2023-01-29T04:58:41.498Z,81.20
2023-01-29T05:01:15.751Z,80.70
2023-01-29T05:03:48.220Z,81.20
2023-01-29T05:06:19.976Z,80.50
2023-01-29T05:08:50.486Z,80.10
2023-01-29T05:11:21.419Z,79.90
2023-01-29T05:13:50.865Z,79.60
2023-01-29T05:16:23.840Z,79.30
2023-01-29T05:18:52.915Z,79.00
2023-01-29T05:21:25.036Z,79.40
2023-01-29T05:24:10.253Z,78.80
2023-01-29T05:26:56.206Z,80.50
2023-01-29T05:29:25.037Z,81.60
2023-01-29T05:31:53.705Z,81.10
2023-01-29T05:34:22.514Z,81.20
2023-01-29T05:36:52.738Z,81.20
2023-01-29T05:39:21.526Z,82.00
2023-01-29T05:41:50.536Z,81.20
2023-01-29T05:44:19.428Z,81.00
2023-01-29T05:46:48.352Z,81.00
2023-01-29T05:49:20.605Z,80.10
2023-01-29T05:51:49.378Z,80.20
2023-01-29T05:54:19.778Z,79.50
2023-01-29T05:56:48.537Z,79.50
2023-01-29T05:59:17.505Z,79.30
2023-01-29T06:01:46.218Z,80.50
2023-01-29T06:04:14.998Z,80.80
2023-01-29T06:06:43.815Z,80.00
2023-01-29T06:09:12.622Z,80.50
2023-01-29T06:11:42.856Z,80.60
2023-01-29T06:14:11.581Z,81.70
2023-01-29T06:16:40.392Z,82.00
2023-01-29T06:19:09.130Z,81.70
2023-01-29T06:21:37.929Z,81.30
2023-01-29T06:24:07.299Z,81.60
2023-01-29T06:26:36.050Z,81.80
2023-01-29T06:29:06.276Z,82.20
2023-01-29T06:31:39.241Z,82.70
2023-01-29T06:34:08.832Z,83.60
2023-01-29T06:36:37.838Z,82.70
2023-01-29T06:39:06.644Z,82.20
2023-01-29T06:41:35.848Z,82.50
2023-01-29T06:44:06.292Z,83.00
2023-01-29T06:46:34.999Z,83.50
2023-01-29T06:49:03.829Z,84.10
2023-01-29T06:51:32.558Z,84.40
2023-01-29T06:54:01.291Z,84.40
2023-01-29T06:56:29.997Z,85.10
2023-01-29T06:58:58.748Z,85.80
2023-01-29T07:01:35.967Z,85.20
2023-01-29T07:04:05.582Z,84.90
2023-01-29T07:06:35.095Z,84.40
2023-01-29T07:09:04.051Z,83.60
2023-01-29T07:11:33.143Z,83.50
2023-01-29T07:14:01.832Z,83.90
2023-01-29T07:16:32.007Z,83.20
2023-01-29T07:19:00.859Z,83.30
2023-01-29T07:21:29.626Z,83.10
2023-01-29T07:23:58.686Z,83.30
2023-01-29T07:26:27.576Z,83.20
2023-01-29T07:28:56.390Z,82.80
2023-01-29T07:31:25.176Z,81.90
2023-01-29T07:33:55.973Z,81.80
2023-01-29T07:36:24.714Z,81.60
2023-01-29T07:38:53.616Z,82.10
2023-01-29T07:41:22.746Z,81.90
2023-01-29T07:43:52.454Z,80.50
2023-01-29T07:46:21.175Z,79.30
2023-01-29T07:48:49.944Z,79.00
2023-01-29T07:51:21.537Z,77.10
2023-01-29T07:53:50.413Z,76.60
2023-01-29T07:56:19.077Z,75.80
2023-01-29T07:58:47.859Z,77.50
2023-01-29T08:01:16.789Z,75.90
2023-01-29T08:03:45.569Z,75.30
2023-01-29T08:06:14.330Z,73.60
2023-01-29T08:08:44.478Z,72.90
2023-01-29T08:11:13.205Z,72.60
2023-01-29T08:13:41.939Z,72.40
2023-01-29T08:16:10.787Z,72.00
2023-01-29T08:18:44.220Z,71.20
2023-01-29T08:21:13.784Z,70.50
2023-01-29T08:23:44.190Z,69.70
2023-01-29T08:26:12.991Z,68.80
2023-01-29T08:28:41.695Z,68.30
2023-01-29T08:31:15.885Z,67.70
2023-01-29T08:33:44.853Z,66.80
2023-01-29T08:36:13.917Z,66.80
2023-01-29T08:38:44.364Z,65.20
2023-01-29T08:41:13.245Z,65.30
2023-01-29T08:43:41.975Z,65.60
2023-01-29T08:46:10.803Z,64.80
2023-01-29T08:48:39.664Z,65.00
2023-01-29T08:51:09.013Z,65.70
2023-01-29T08:53:38.004Z,65.80
2023-01-29T08:56:08.749Z,65.60
2023-01-29T08:58:37.546Z,65.60
2023-01-29T09:01:09.898Z,65.00
2023-01-29T09:03:41.171Z,65.50
2023-01-29T09:06:12.364Z,65.10
2023-01-29T09:08:41.454Z,65.40
2023-01-29T09:11:11.908Z,64.30
2023-01-29T09:13:40.656Z,63.80
2023-01-29T09:16:11.017Z,63.30
2023-01-29T09:18:39.815Z,63.90
2023-01-29T09:21:08.569Z,63.50
2023-01-29T09:23:37.326Z,63.60
2023-01-29T09:26:06.504Z,64.10
2023-01-29T09:28:36.702Z,64.30
2023-01-29T09:31:09.056Z,63.10
2023-01-29T09:33:38.080Z,63.70
2023-01-29T09:36:07.835Z,62.40
2023-01-29T09:38:36.567Z,63.00
2023-01-29T09:41:21.962Z,63.30
2023-01-29T09:43:56.955Z,62.30
2023-01-29T09:46:36.724Z,58.10
2023-01-29T09:49:13.543Z,60.90
2023-01-29T09:51:44.414Z,61.00
2023-01-29T09:54:24.201Z,60.00
2023-01-29T09:56:56.307Z,60.60
2023-01-29T09:59:28.975Z,60.00
2023-01-29T10:02:07.456Z,61.20
2023-01-29T10:05:04.963Z,58.90
2023-01-29T10:07:56.726Z,57.10
2023-01-29T10:10:40.456Z,58.10
2023-01-29T10:13:17.270Z,54.90
2023-01-29T10:16:03.315Z,54.60
2023-01-29T10:19:06.481Z,53.70
2023-01-29T10:22:05.865Z,52.70
2023-01-29T10:24:40.063Z,53.70
2023-01-29T10:27:16.748Z,54.50
2023-01-29T10:29:50.843Z,52.50
2023-01-29T10:32:25.102Z,52.70
2023-01-29T10:35:00.067Z,51.90
2023-01-29T10:37:41.015Z,52.90
2023-01-29T10:40:25.709Z,51.90
2023-01-29T10:43:01.029Z,52.70
2023-01-29T10:45:35.994Z,50.50
2023-01-29T10:48:34.089Z,50.80
2023-01-29T10:51:14.757Z,49.50
2023-01-29T10:53:55.059Z,49.10
2023-01-29T10:56:36.463Z,49.50
2023-01-29T10:59:10.259Z,49.40
2023-01-29T11:01:40.992Z,49.60
2023-01-29T11:04:14.583Z,51.60
2023-01-29T11:06:46.679Z,51.10
2023-01-29T11:12:02.534Z,47.40
2023-01-29T11:14:37.746Z,49.00
2023-01-29T11:17:08.714Z,48.30
2023-01-29T11:19:43.560Z,47.70
2023-01-29T11:22:18.464Z,47.60
2023-01-29T11:24:47.804Z,48.40
2023-01-29T11:27:22.721Z,48.30
2023-01-29T11:29:52.143Z,48.60
2023-01-29T11:32:28.022Z,48.70
2023-01-29T11:35:03.578Z,47.50
2023-01-29T11:37:40.096Z,48.30
2023-01-29T11:40:34.835Z,49.00
2023-01-29T11:43:28.987Z,48.70
2023-01-29T11:46:00.597Z,48.80
2023-01-29T11:48:35.213Z,49.30
2023-01-29T11:51:06.577Z,49.10
2023-01-29T11:53:42.099Z,48.90
2023-01-29T11:56:25.875Z,47.50
2023-01-29T11:58:57.809Z,47.90
2023-01-29T12:01:34.538Z,48.20
2023-01-29T12:04:05.791Z,47.30
2023-01-29T12:06:39.260Z,47.20
2023-01-29T12:09:15.506Z,47.60
2023-01-29T12:11:44.770Z,48.50
2023-01-29T12:14:29.546Z,47.90
2023-01-29T12:17:02.777Z,47.30
2023-01-29T12:19:38.175Z,47.60
2023-01-29T12:22:14.941Z,47.30
2023-01-29T12:24:50.670Z,46.30
2023-01-29T12:27:24.009Z,46.40
2023-01-29T12:30:01.059Z,45.10
2023-01-29T12:32:40.670Z,46.20
2023-01-29T12:35:16.919Z,47.40
2023-01-29T12:37:57.732Z,46.60
2023-01-29T12:40:31.151Z,46.20
2023-01-29T12:43:05.881Z,46.10
2023-01-29T12:45:37.767Z,46.80
2023-01-29T12:48:09.818Z,44.10
2023-01-29T12:50:39.987Z,44.80
2023-01-29T12:53:22.467Z,44.90
2023-01-29T12:55:55.668Z,43.90
2023-01-29T12:58:30.931Z,43.00
2023-01-29T13:01:05.003Z,43.90
2023-01-29T13:03:41.358Z,43.10
2023-01-29T13:06:13.005Z,44.30
2023-01-29T13:08:49.817Z,43.10
2023-01-29T13:11:24.464Z,42.10
2023-01-29T13:13:56.789Z,42.20
2023-01-29T13:16:35.254Z,43.50
2023-01-29T13:19:07.490Z,43.50
2023-01-29T13:21:41.157Z,43.30
2023-01-29T13:24:16.919Z,43.40
2023-01-29T13:26:47.630Z,42.90
2023-01-29T13:29:24.590Z,42.10
2023-01-29T13:31:55.495Z,42.10
2023-01-29T13:34:26.139Z,42.70
2023-01-29T13:36:57.706Z,43.20
2023-01-29T13:39:30.908Z,43.10
2023-01-29T13:42:01.437Z,42.30
2023-01-29T13:44:34.137Z,41.20
2023-01-29T13:47:05.409Z,42.70
2023-01-29T13:49:41.710Z,42.90
2023-01-29T13:52:22.865Z,43.00
2023-01-29T13:54:58.208Z,42.20
2023-01-29T13:57:55.418Z,42.00
2023-01-29T14:00:58.663Z,41.30
2023-01-29T14:04:03.639Z,42.40
2023-01-29T14:06:51.150Z,42.90
2023-01-29T14:09:51.037Z,43.30
2023-01-29T14:12:46.112Z,42.20
2023-01-29T14:15:33.970Z,41.90
2023-01-29T14:18:21.456Z,42.50
2023-01-29T14:21:02.616Z,43.50
2023-01-29T14:23:44.463Z,43.60
2023-01-29T14:26:32.505Z,43.80
2023-01-29T14:29:09.419Z,43.20
2023-01-29T14:31:44.586Z,43.30
2023-01-29T14:34:23.171Z,43.70
2023-01-29T14:36:55.706Z,43.40
2023-01-29T14:39:31.056Z,42.90
2023-01-29T14:42:01.268Z,42.90
2023-01-29T14:45:08.220Z,43.40
2023-01-29T14:48:18.588Z,44.10
2023-01-29T14:50:57.701Z,43.80
2023-01-29T14:53:33.223Z,43.80
2023-01-29T14:56:05.706Z,44.50
2023-01-29T14:58:43.788Z,44.00
2023-01-29T15:01:24.288Z,42.30
2023-01-29T15:03:55.228Z,42.80
2023-01-29T15:06:33.427Z,43.80
2023-01-29T15:09:11.897Z,44.60
2023-01-29T15:11:51.940Z,44.70
2023-01-29T15:14:27.667Z,45.00
2023-01-29T15:17:20.820Z,45.50
2023-01-29T15:19:50.971Z,46.20
2023-01-29T15:22:22.409Z,46.00
2023-01-29T15:25:07.404Z,46.00
2023-01-29T15:27:36.628Z,46.10
2023-01-29T15:30:08.579Z,45.50
2023-01-29T15:32:40.860Z,46.40
2023-01-29T15:35:12.196Z,46.60
2023-01-29T15:37:41.815Z,47.60
2023-01-29T15:40:18.170Z,48.40
2023-01-29T15:42:48.940Z,49.80
2023-01-29T15:45:30.187Z,49.80
2023-01-29T15:48:05.746Z,50.60
2023-01-29T15:50:37.917Z,50.30
2023-01-29T15:53:10.248Z,50.80
2023-01-29T15:55:39.079Z,51.40
2023-01-29T15:58:09.228Z,51.90
2023-01-29T16:00:38.920Z,52.70
2023-01-29T16:03:17.393Z,53.20
2023-01-29T16:05:46.907Z,54.20
2023-01-29T16:08:19.948Z,54.70
2023-01-29T16:10:53.492Z,55.10
2023-01-29T16:13:25.609Z,55.20
2023-01-29T16:15:59.988Z,56.20
2023-01-29T16:18:35.988Z,56.20
2023-01-29T16:21:09.148Z,56.10
2023-01-29T16:23:43.200Z,56.40
2023-01-29T16:26:18.871Z,56.70
2023-01-29T16:28:48.875Z,56.80
2023-01-29T16:31:24.219Z,56.90
2023-01-29T16:33:55.097Z,57.20
2023-01-29T16:36:25.998Z,57.60
2023-01-29T16:38:57.884Z,57.80
2023-01-29T16:41:36.022Z,58.20
2023-01-29T16:44:25.038Z,58.20
2023-01-29T16:46:53.927Z,58.30
2023-01-29T16:49:52.195Z,59.30
2023-01-29T16:52:25.086Z,58.70
2023-01-29T16:54:59.775Z,59.00
2023-01-29T16:57:34.005Z,59.80
2023-01-29T17:00:08.701Z,59.30
2023-01-29T17:02:40.792Z,59.30
2023-01-29T17:05:20.927Z,59.70
2023-01-29T17:07:49.928Z,60.60
2023-01-29T17:10:20.613Z,60.80
2023-01-29T17:12:59.025Z,61.40
2023-01-29T17:15:44.818Z,61.80
2023-01-29T17:18:19.550Z,62.70
2023-01-29T17:20:50.445Z,62.20
2023-01-29T17:23:19.251Z,63.30
2023-01-29T17:25:48.497Z,64.20
2023-01-29T17:28:19.072Z,65.00
2023-01-29T17:31:00.248Z,65.80
2023-01-29T17:33:34.231Z,66.60
2023-01-29T17:36:05.550Z,67.00
2023-01-29T17:38:34.916Z,67.70
2023-01-29T17:41:07.996Z,68.20
2023-01-29T17:43:36.937Z,69.40
2023-01-29T17:46:06.033Z,69.80
2023-01-29T17:48:34.846Z,70.20
2023-01-29T17:51:06.819Z,70.90
2023-01-29T17:53:45.650Z,71.90
2023-01-29T17:56:17.812Z,71.70
2023-01-29T17:58:46.575Z,72.40
2023-01-29T18:01:15.334Z,72.00
2023-01-29T18:03:44.261Z,71.80
2023-01-29T18:06:23.625Z,72.40
2023-01-29T18:08:52.803Z,73.20
2023-01-29T18:11:21.598Z,74.10
2023-01-29T18:13:50.314Z,74.00
2023-01-29T18:16:22.072Z,74.60
2023-01-29T18:18:53.099Z,74.80
2023-01-29T18:21:23.362Z,74.50
2023-01-29T18:23:52.177Z,75.50
2023-01-29T19:03:17.593Z,82.20
2023-01-29T19:05:46.137Z,79.80
2023-01-29T19:08:14.679Z,80.50
2023-01-29T19:10:43.175Z,79.60
2023-01-29T19:13:11.850Z,79.50
2023-01-29T19:15:44.279Z,80.00
2023-01-29T19:18:14.935Z,80.80
2023-01-29T19:20:43.511Z,81.30
2023-01-29T19:23:29.856Z,81.90
2023-01-29T19:25:59.277Z,83.20
2023-01-29T19:28:27.854Z,83.10
2023-01-29T19:30:59.247Z,82.00
2023-01-29T19:33:46.993Z,81.90
2023-01-29T19:36:15.518Z,82.00
2023-01-29T19:38:44.037Z,83.10
2023-01-29T19:41:12.561Z,83.10
2023-01-29T19:43:42.119Z,84.20
2023-01-29T19:46:10.774Z,84.40
2023-01-29T19:48:40.825Z,83.20
2023-01-29T19:51:12.201Z,84.10
2023-01-29T19:53:43.918Z,84.50
2023-01-29T19:56:14.229Z,85.00
2023-01-29T19:58:42.821Z,84.90
2023-01-29T20:01:16.244Z,85.90
2023-01-29T20:03:47.844Z,86.50
2023-01-29T20:06:18.195Z,87.30
2023-01-29T20:08:47.276Z,86.40
2023-01-29T20:11:16.223Z,87.80
2023-01-29T20:13:45.314Z,88.20
2023-01-29T20:16:14.622Z,89.30
2023-01-29T20:18:43.304Z,89.20
2023-01-29T20:21:15.165Z,90.20
2023-01-29T20:23:45.937Z,89.90
2023-01-29T20:26:17.712Z,89.40
2023-01-29T20:28:48.016Z,90.30
2023-01-29T20:31:17.493Z,90.50
2023-01-29T20:33:46.649Z,90.40
2023-01-29T20:36:16.759Z,90.40
2023-01-29T20:38:45.323Z,90.50
2023-01-29T20:41:15.815Z,90.40
2023-01-29T20:43:45.093Z,91.10
2023-01-29T20:46:13.786Z,91.80
2023-01-29T20:48:43.028Z,92.20
2023-01-29T20:51:15.351Z,91.90
2023-01-29T20:53:47.252Z,91.40
2023-01-29T20:56:17.092Z,91.20
2023-01-29T20:58:47.013Z,90.50
2023-01-29T21:01:17.558Z,91.10
2023-01-29T21:03:46.701Z,91.10
2023-01-29T21:06:15.973Z,91.30
2023-01-29T21:08:46.315Z,91.10
2023-01-29T21:11:14.985Z,91.30
2023-01-29T21:14:01.056Z,91.70
2023-01-29T21:16:30.280Z,91.20
2023-01-29T21:18:59.549Z,91.20
2023-01-29T21:21:29.112Z,91.10
2023-01-29T21:23:59.523Z,91.80
2023-01-29T21:26:30.493Z,92.10
2023-01-29T21:28:59.547Z,92.70
2023-01-29T21:31:28.261Z,92.80
2023-01-29T21:34:14.238Z,93.00
2023-01-29T21:36:42.753Z,92.40
2023-01-29T21:39:20.929Z,92.20
2023-01-29T21:42:08.184Z,92.10
2023-01-29T21:44:37.612Z,92.40
2023-01-29T21:47:12.571Z,92.60
2023-01-29T21:49:42.444Z,92.70
2023-01-29T21:52:12.902Z,92.90
2023-01-29T21:54:49.224Z,93.50
2023-01-29T21:57:18.063Z,93.30
2023-01-29T21:59:47.760Z,93.30
2023-01-29T22:02:22.682Z,93.40
2023-01-29T22:04:52.428Z,93.30
2023-01-29T22:07:20.991Z,93.10
2023-01-29T22:10:08.587Z,93.30
2023-01-29T22:12:37.192Z,93.20
2023-01-29T22:15:06.520Z,93.20
2023-01-29T22:17:35.378Z,92.80
2023-01-29T22:20:03.972Z,93.50
2023-01-29T22:22:32.571Z,93.50
2023-01-29T22:25:19.872Z,93.30
2023-01-29T22:27:48.423Z,93.50
2023-01-29T22:30:17.517Z,94.40
2023-01-29T22:32:46.170Z,94.50
2023-01-29T22:35:14.674Z,94.30
2023-01-29T22:37:43.193Z,94.70
2023-01-29T22:40:14.382Z,95.00
2023-01-29T22:42:42.924Z,95.00
2023-01-29T22:45:12.384Z,95.40
2023-01-29T22:47:40.936Z,95.10
2023-01-29T22:50:10.362Z,95.10
2023-01-29T22:52:42.923Z,94.70
2023-01-29T22:55:14.711Z,94.90
2023-01-29T22:57:43.212Z,94.60
2023-01-29T23:00:14.504Z,94.10
2023-01-29T23:02:43.027Z,93.80
2023-01-29T23:05:11.731Z,94.30
2023-01-29T23:07:40.284Z,93.80
2023-01-29T23:10:10.034Z,94.30
2023-01-29T23:12:39.951Z,94.90
2023-01-29T23:15:09.281Z,95.60
2023-01-29T23:17:39.695Z,95.40
2023-01-29T23:20:10.593Z,95.20
2023-01-29T23:22:39.296Z,95.10
2023-01-29T23:25:08.640Z,95.30
2023-01-29T23:27:36.382Z,95.20
2023-01-29T23:30:07.705Z,95.30
2023-01-29T23:32:36.672Z,95.30
2023-01-29T23:35:05.477Z,95.20
2023-01-29T23:37:34.616Z,94.90
2023-01-29T23:40:03.163Z,94.80
2023-01-29T23:42:31.752Z,95.10
2023-01-29T23:45:17.543Z,95.50
2023-01-29T23:47:47.513Z,95.40
2023-01-29T23:50:16.540Z,95.40
2023-01-29T23:52:45.194Z,95.30
2023-01-29T23:55:13.647Z,95.10
2023-01-29T23:57:42.165Z,95.80
